createdAt,value
2018-08-17T00:09:47.838Z,5.27
2018-08-17T00:19:49.110Z,5.80
2018-08-17T00:29:50.366Z,6.57
2018-08-17T00:39:52.382Z,5.67
2018-08-17T00:49:54.409Z,5.70
2018-08-17T00:59:55.652Z,5.70
2018-08-17T01:09:56.902Z,6.20
2018-08-17T01:19:58.171Z,6.07
2018-08-17T01:30:00.190Z,6.40
2018-08-17T01:40:01.560Z,5.70
2018-08-17T01:50:02.834Z,6.90
2018-08-17T02:00:04.120Z,6.33
2018-08-17T02:10:05.394Z,6.20
2018-08-17T02:20:06.656Z,6.10
2018-08-17T02:30:07.930Z,6.60
2018-08-17T02:40:09.207Z,6.67
2018-08-17T02:50:10.458Z,6.10
2018-08-17T03:00:11.726Z,7.10
2018-08-17T03:10:12.976Z,6.93
2018-08-17T03:20:14.221Z,6.63
2018-08-17T03:30:16.244Z,6.83
2018-08-17T03:40:18.315Z,6.80
2018-08-17T03:50:19.601Z,6.67
2018-08-17T04:00:20.891Z,7.07
2018-08-17T04:10:22.181Z,6.77
2018-08-17T04:20:23.445Z,6.90
2018-08-17T04:30:24.717Z,6.73
2018-08-17T04:40:25.986Z,7.37
2018-08-17T04:50:27.226Z,7.77
2018-08-17T05:00:29.526Z,6.57
2018-08-17T05:10:30.776Z,6.77
2018-08-17T05:20:32.042Z,6.97
2018-08-17T05:30:34.072Z,6.40
2018-08-17T05:40:35.635Z,6.77
2018-08-17T05:50:37.916Z,6.07
2018-08-17T06:00:39.578Z,5.93
2018-08-17T06:10:40.969Z,6.03
2018-08-17T06:20:42.566Z,5.60
2018-08-17T06:30:44.432Z,6.63
2018-08-17T06:40:45.908Z,5.77
2018-08-17T06:50:47.223Z,5.80
2018-08-17T07:00:48.402Z,6.30
2018-08-17T07:10:49.653Z,5.17
2018-08-17T07:20:52.039Z,5.73
2018-08-17T07:30:53.319Z,5.20
2018-08-17T07:40:54.583Z,5.10
2018-08-17T07:50:55.904Z,5.30
2018-08-17T08:00:57.178Z,5.50
2018-08-17T08:10:58.488Z,4.10
2018-08-17T08:20:59.705Z,3.22
2018-08-17T08:31:00.949Z,3.25
2018-08-17T08:41:02.219Z,2.92
2018-08-17T08:51:04.237Z,2.78
2018-08-17T09:01:05.490Z,2.87
2018-08-17T09:11:06.753Z,2.50
2018-08-17T09:21:08.031Z,2.10
2018-08-17T09:31:09.296Z,2.53
2018-08-17T09:41:11.327Z,2.00
2018-08-17T09:51:12.616Z,2.25
2018-08-17T10:01:13.866Z,1.98
2018-08-17T10:11:15.145Z,2.10
2018-08-17T10:21:16.556Z,2.15
2018-08-17T10:31:18.462Z,2.37
2018-08-17T10:41:19.707Z,2.37
2018-08-17T10:51:21.720Z,2.58
2018-08-17T11:01:23.731Z,2.72
2018-08-17T11:11:25.754Z,2.40
2018-08-17T11:21:27.825Z,2.15
2018-08-17T11:31:29.088Z,2.45
2018-08-17T11:41:30.510Z,2.12
2018-08-17T11:51:31.672Z,2.22
2018-08-17T12:01:33.741Z,2.30
2018-08-17T12:11:35.001Z,2.47
2018-08-17T12:21:36.279Z,2.70
2018-08-17T12:31:37.542Z,2.62
2018-08-17T12:41:39.544Z,2.42
2018-08-17T12:51:40.807Z,2.80
2018-08-17T13:01:42.099Z,2.87
2018-08-17T13:11:43.380Z,2.22
2018-08-17T13:21:44.652Z,3.00
2018-08-17T13:31:46.678Z,2.72
2018-08-17T13:41:47.938Z,2.47
2018-08-17T13:51:49.199Z,2.62
2018-08-17T14:01:50.459Z,2.80
2018-08-17T14:11:51.737Z,2.70
2018-08-17T14:21:53.747Z,2.60
2018-08-17T14:31:55.758Z,3.25
2018-08-17T14:41:57.775Z,3.53
2018-08-17T14:51:59.771Z,3.37
2018-08-17T15:02:01.015Z,3.50
2018-08-17T15:12:02.283Z,3.75
2018-08-17T15:22:04.299Z,3.45
2018-08-17T15:32:06.441Z,3.50
2018-08-17T15:42:07.718Z,3.35
2018-08-17T15:52:09.039Z,3.30
2018-08-17T16:02:11.031Z,3.55
2018-08-17T16:12:12.293Z,3.30
2018-08-17T16:22:13.581Z,3.70
2018-08-17T16:32:14.827Z,3.83
2018-08-17T16:42:16.064Z,4.32
2018-08-17T16:52:17.315Z,4.15
2018-08-17T17:02:18.567Z,4.05
2018-08-17T17:12:19.793Z,4.53
2018-08-17T17:22:21.068Z,4.40
2018-08-17T17:32:22.319Z,4.47
2018-08-17T17:42:23.587Z,4.68
2018-08-17T17:52:24.881Z,4.80
2018-08-17T18:02:26.912Z,5.30
2018-08-17T18:12:28.957Z,5.40
2018-08-17T18:22:30.216Z,5.67
2018-08-17T18:32:31.453Z,6.00
2018-08-17T18:42:32.700Z,5.93
2018-08-17T18:52:34.828Z,6.53
2018-08-17T19:02:36.003Z,6.47
2018-08-17T19:12:37.270Z,7.13
2018-08-17T19:22:38.534Z,6.97
2018-08-17T19:32:39.825Z,6.80
2018-08-17T19:42:41.099Z,7.50
2018-08-17T19:52:42.401Z,8.47
2018-08-17T20:02:43.652Z,8.07
2018-08-17T20:12:44.890Z,7.47
2018-08-17T20:22:46.146Z,7.40
2018-08-17T20:32:47.402Z,8.20
2018-08-17T20:42:48.775Z,8.90
2018-08-17T20:52:50.026Z,8.67
2018-08-17T21:02:51.324Z,9.27
2018-08-17T21:12:53.372Z,9.63
2018-08-17T21:22:54.661Z,9.13
2018-08-17T21:32:56.018Z,9.30
2018-08-17T21:42:57.321Z,9.90
2018-08-17T21:52:58.618Z,9.90
2018-08-17T22:02:59.862Z,9.30
2018-08-17T22:13:01.100Z,10.50
2018-08-17T22:23:02.380Z,9.70
2018-08-17T22:33:03.672Z,10.57
2018-08-17T22:43:04.907Z,10.30
2018-08-17T22:53:06.254Z,11.53
2018-08-17T23:03:08.296Z,12.37
2018-08-17T23:13:09.584Z,10.60
2018-08-17T23:23:10.889Z,10.77
2018-08-17T23:33:12.186Z,11.37
2018-08-17T23:43:13.466Z,11.83
2018-08-17T23:53:14.709Z,11.43
